Time;durP1;ratioP1;P1;durP2;ratioP2;P2;SDS_P1;SDS_P2;PMS_P1;PMS_P2;Temp;Humidity;BMP_temperature;BMP_pressure;BME280_temperature;BME280_humidity;BME280_pressure;Samples;Min_cycle;Max_cycle;Signal;HPM_P1;HPM_P2
2022/02/18 00:00:18;;;;;;;5.40;2.40;;;23.60;40.50;;;;;;6098955;28;80677;-64
2022/02/18 00:03:18;;;;;;;6.38;2.88;;;23.70;40.50;;;;;;6114662;28;80563;-64
2022/02/18 00:06:20;;;;;;;6.15;2.97;;;23.70;40.40;;;;;;6120368;28;80226;-64
2022/02/18 00:09:20;;;;;;;6.05;3.00;;;23.60;40.30;;;;;;6117428;28;80901;-65
2022/02/18 00:12:21;;;;;;;3.95;2.72;;;23.60;40.40;;;;;;6111378;28;80412;-65
2022/02/18 00:15:26;;;;;;;5.53;3.07;;;23.60;40.30;;;;;;6126470;28;80352;-65
2022/02/18 00:18:27;;;;;;;4.30;2.60;;;23.60;40.20;;;;;;6130282;28;81459;-65
2022/02/18 00:21:27;;;;;;;9.25;2.83;;;23.60;40.10;;;;;;6129029;28;81331;-65
2022/02/18 00:24:28;;;;;;;5.68;2.80;;;23.60;39.90;;;;;;6122813;28;80754;-66
2022/02/18 00:27:28;;;;;;;6.75;3.28;;;23.60;40.00;;;;;;6127985;28;80509;-65
2022/02/18 00:30:31;;;;;;;7.47;3.38;;;23.50;39.60;;;;;;6109483;28;81870;-65
2022/02/18 00:33:31;;;;;;;4.45;2.25;;;23.50;39.60;;;;;;6116594;28;80532;-66
2022/02/18 00:36:32;;;;;;;4.03;2.42;;;23.50;39.60;;;;;;6109302;28;80548;-66
2022/02/18 00:39:32;;;;;;;5.13;2.67;;;23.50;39.40;;;;;;6107647;28;82375;-66
2022/02/18 00:42:33;;;;;;;9.00;3.50;;;23.50;39.50;;;;;;6098996;28;81671;-66
2022/02/18 00:45:33;;;;;;;7.10;2.90;;;23.50;39.40;;;;;;6100444;28;81900;-64
2022/02/18 00:48:35;;;;;;;5.13;2.60;;;23.50;39.50;;;;;;6115105;28;80491;-65
2022/02/18 00:51:36;;;;;;;5.25;2.97;;;23.50;39.40;;;;;;6105755;28;80567;-66
2022/02/18 00:54:36;;;;;;;4.88;2.47;;;23.50;39.30;;;;;;6126669;28;80222;-65
2022/02/18 00:57:37;;;;;;;5.10;2.65;;;23.50;39.20;;;;;;6094615;28;81725;-65
2022/02/18 01:00:37;;;;;;;4.40;2.45;;;23.50;39.30;;;;;;6110796;28;80733;-65
2022/02/18 01:03:38;;;;;;;6.93;2.72;;;23.50;39.20;;;;;;6110451;28;80597;-65
2022/02/18 01:06:39;;;;;;;5.40;2.70;;;23.50;39.20;;;;;;6116922;28;83821;-65
2022/02/18 01:09:40;;;;;;;5.80;2.65;;;23.50;39.20;;;;;;6115804;28;80537;-65
2022/02/18 01:12:40;;;;;;;5.82;2.72;;;23.50;39.00;;;;;;6113508;28;80201;-64
2022/02/18 01:15:41;;;;;;;4.65;2.85;;;23.50;39.00;;;;;;6116037;28;81012;-65
2022/02/18 01:18:41;;;;;;;4.63;2.58;;;23.50;39.10;;;;;;6116401;28;81379;-64
2022/02/18 01:21:42;;;;;;;5.90;2.67;;;23.50;39.10;;;;;;6117639;28;80379;-65
2022/02/18 01:24:42;;;;;;;5.35;2.60;;;23.50;39.10;;;;;;6119797;28;80655;-66
2022/02/18 01:27:43;;;;;;;5.18;2.28;;;23.50;39.10;;;;;;6121236;28;80451;-65
2022/02/18 01:30:44;;;;;;;5.72;2.55;;;23.50;38.90;;;;;;6107054;28;83057;-64
2022/02/18 01:33:44;;;;;;;6.03;2.55;;;23.50;38.90;;;;;;6101551;28;83492;-64
2022/02/18 01:36:45;;;;;;;2.80;1.88;;;23.50;38.90;;;;;;6122451;28;83620;-64
2022/02/18 01:39:45;;;;;;;4.57;2.13;;;23.50;39.00;;;;;;6106856;28;87363;-64
2022/02/18 01:42:46;;;;;;;5.38;2.30;;;23.50;38.90;;;;;;6096606;28;80981;-63
2022/02/18 01:45:47;;;;;;;3.83;1.95;;;23.50;38.80;;;;;;6127953;28;82203;-64
2022/02/18 01:48:47;;;;;;;4.00;2.05;;;23.50;38.70;;;;;;6109584;28;80074;-65
2022/02/18 01:51:48;;;;;;;5.03;2.13;;;23.40;38.60;;;;;;6124424;28;81435;-64
2022/02/18 01:54:48;;;;;;;4.97;1.83;;;23.40;38.50;;;;;;6116150;28;80301;-65
2022/02/18 01:57:49;;;;;;;3.38;2.13;;;23.40;38.70;;;;;;6125095;28;83465;-65
2022/02/18 02:00:49;;;;;;;3.70;1.85;;;23.40;38.70;;;;;;6109348;28;80941;-64
2022/02/18 02:03:50;;;;;;;3.67;1.80;;;23.40;38.70;;;;;;6101251;28;83704;-64
2022/02/18 02:06:52;;;;;;;5.15;1.92;;;23.40;38.50;;;;;;6098409;28;83695;-65
2022/02/18 02:09:54;;;;;;;4.53;2.00;;;23.40;38.50;;;;;;6103092;28;81870;-63
2022/02/18 02:12:55;;;;;;;3.15;1.67;;;23.40;38.40;;;;;;6125778;28;84251;-64
2022/02/18 02:16:10;;;;;;;4.53;2.40;;;23.40;38.60;;;;;;6108379;28;82865;-65
2022/02/18 02:19:11;;;;;;;2.63;1.60;;;23.40;38.70;;;;;;6116725;28;80380;-64
2022/02/18 02:22:11;;;;;;;4.35;2.10;;;23.40;38.60;;;;;;6128034;28;83045;-64
2022/02/18 02:25:12;;;;;;;4.15;2.00;;;23.40;38.60;;;;;;6118722;28;83297;-65
2022/02/18 02:28:13;;;;;;;3.42;1.85;;;23.40;38.60;;;;;;6120280;28;80347;-63
2022/02/18 02:31:13;;;;;;;5.05;2.33;;;23.40;38.60;;;;;;6125164;28;80394;-63
2022/02/18 02:34:15;;;;;;;3.15;1.42;;;23.40;38.50;;;;;;6121231;28;83269;-64
2022/02/18 02:37:16;;;;;;;5.78;2.20;;;23.40;38.50;;;;;;6103991;28;83223;-64
2022/02/18 02:40:18;;;;;;;2.58;1.80;;;23.40;38.60;;;;;;6118415;28;82111;-64
2022/02/18 02:43:22;;;;;;;3.20;1.42;;;23.40;38.40;;;;;;6106179;28;82799;-65
2022/02/18 02:46:23;;;;;;;3.65;1.90;;;23.40;38.40;;;;;;6105413;28;81953;-62
2022/02/18 02:49:25;;;;;;;3.72;1.80;;;23.40;38.60;;;;;;6099329;28;81656;-64
2022/02/18 02:52:26;;;;;;;4.40;1.90;;;23.40;38.80;;;;;;6097273;28;83765;-64
2022/02/18 02:55:36;;;;;;;3.75;1.77;;;23.40;38.90;;;;;;6125454;28;83490;-63
2022/02/18 02:58:40;;;;;;;4.05;1.80;;;23.40;38.60;;;;;;6128420;28;82874;-64
2022/02/18 03:01:41;;;;;;;2.38;1.45;;;23.40;38.50;;;;;;6120293;28;83129;-64
2022/02/18 03:04:42;;;;;;;3.47;1.85;;;23.40;38.50;;;;;;6128352;28;82319;-64
2022/02/18 03:07:43;;;;;;;1.95;1.42;;;23.40;38.60;;;;;;6117810;28;83197;-65
2022/02/18 03:14:14;;;;;;;3.15;1.50;;;23.40;38.40;;;;;;6115527;28;83473;-65
2022/02/18 03:17:25;;;;;;;2.63;1.63;;;23.40;38.40;;;;;;6106752;28;81830;-65
2022/02/18 03:20:36;;;;;;;2.53;1.58;;;23.40;38.30;;;;;;6123574;28;81464;-67
2022/02/18 03:23:37;;;;;;;2.40;1.40;;;23.40;38.30;;;;;;6124694;28;83458;-65
2022/02/18 03:26:38;;;;;;;2.60;1.58;;;23.40;38.30;;;;;;6123109;28;83200;-66
2022/02/18 03:29:45;;;;;;;4.45;1.67;;;23.40;38.20;;;;;;6127866;28;81440;-67
2022/02/18 03:32:55;;;;;;;3.38;1.55;;;23.40;38.10;;;;;;6121346;28;81502;-65
2022/02/18 03:35:58;;;;;;;7.93;1.80;;;23.40;38.20;;;;;;6128068;28;82863;-65
2022/02/18 03:39:00;;;;;;;2.88;1.60;;;23.30;38.10;;;;;;6114822;28;83748;-65
2022/02/18 03:42:02;;;;;;;2.25;1.30;;;23.40;38.20;;;;;;6117285;28;82571;-65
2022/02/18 03:45:05;;;;;;;2.13;1.27;;;23.30;38.10;;;;;;6123242;28;83392;-64
2022/02/18 03:48:05;;;;;;;2.85;1.73;;;23.30;38.00;;;;;;6130340;28;84568;-64
2022/02/18 03:51:06;;;;;;;2.55;1.30;;;23.30;38.40;;;;;;6117401;28;87530;-64
2022/02/18 03:54:08;;;;;;;2.05;1.30;;;23.40;39.40;;;;;;6127546;28;81925;-63
2022/02/18 03:57:10;;;;;;;2.55;1.35;;;23.40;40.50;;;;;;6124575;28;83212;-63
2022/02/18 04:00:10;;;;;;;1.30;1.20;;;23.40;40.80;;;;;;6113541;28;83181;-64
2022/02/18 04:03:19;;;;;;;2.25;1.30;;;23.40;41.20;;;;;;6097495;28;80619;-64
2022/02/18 04:06:38;;;;;;;4.43;1.42;;;23.40;40.60;;;;;;6120709;28;80582;-64
2022/02/18 04:09:42;;;;;;;3.45;1.60;;;23.40;39.50;;;;;;6118390;28;83659;-64
2022/02/18 04:12:51;;;;;;;3.28;1.63;;;23.50;39.30;;;;;;6123271;28;83406;-64
2022/02/18 04:15:55;;;;;;;4.15;1.60;;;23.50;38.90;;;;;;6122248;28;82780;-63
2022/02/18 04:18:57;;;;;;;2.97;1.70;;;23.60;38.60;;;;;;6121501;28;83017;-63
2022/02/18 04:22:03;;;;;;;3.60;1.60;;;23.60;38.30;;;;;;6095560;28;82582;-64
2022/02/18 04:25:11;;;;;;;2.95;1.50;;;23.60;38.10;;;;;;6101679;28;82678;-65
2022/02/18 04:28:13;;;;;;;5.30;1.83;;;23.60;37.90;;;;;;6125179;28;80713;-64
2022/02/18 04:31:14;;;;;;;4.18;1.92;;;23.70;37.70;;;;;;6127381;28;80621;-63
2022/02/18 04:34:17;;;;;;;3.63;1.90;;;23.70;37.60;;;;;;6113406;28;80933;-64
2022/02/18 04:37:18;;;;;;;3.80;2.00;;;23.70;37.40;;;;;;6118496;28;83464;-63
2022/02/18 04:40:18;;;;;;;4.43;2.22;;;23.70;37.30;;;;;;6130700;28;81167;-63
2022/02/18 04:43:19;;;;;;;2.53;1.65;;;23.70;37.20;;;;;;6119943;28;80529;-63
2022/02/18 04:46:20;;;;;;;4.10;1.80;;;23.70;37.00;;;;;;6125173;28;80675;-64
2022/02/18 04:49:20;;;;;;;7.45;2.50;;;23.80;36.90;;;;;;6106025;28;80335;-64
2022/02/18 04:52:21;;;;;;;8.45;2.28;;;23.70;36.80;;;;;;6126616;28;80254;-64
2022/02/18 04:55:22;;;;;;;4.50;1.88;;;23.80;36.60;;;;;;6115985;28;80903;-64
2022/02/18 04:58:22;;;;;;;3.35;1.80;;;23.80;36.40;;;;;;6095347;28;80358;-63
2022/02/18 05:01:23;;;;;;;4.45;2.13;;;23.80;36.30;;;;;;6108830;28;80790;-64
2022/02/18 05:04:24;;;;;;;5.55;2.03;;;23.80;36.10;;;;;;6124365;28;80378;-63
2022/02/18 05:07:24;;;;;;;10.35;2.20;;;23.80;35.90;;;;;;6119765;28;81479;-63
2022/02/18 05:10:25;;;;;;;4.50;2.08;;;23.80;35.70;;;;;;6124355;28;82344;-63
2022/02/18 05:13:26;;;;;;;2.92;1.90;;;23.80;35.70;;;;;;6099397;28;81478;-64
2022/02/18 05:16:27;;;;;;;4.20;2.17;;;23.90;35.90;;;;;;6110197;28;80312;-61
2022/02/18 05:19:28;;;;;;;3.78;1.70;;;23.90;35.90;;;;;;6107863;28;80400;-61
2022/02/18 05:22:28;;;;;;;4.13;1.80;;;23.90;35.80;;;;;;6116802;28;81330;-64
2022/02/18 05:25:31;;;;;;;8.05;2.55;;;23.90;35.40;;;;;;6101536;28;80312;-63
2022/02/18 05:28:32;;;;;;;3.10;1.77;;;23.90;35.30;;;;;;6120507;28;80938;-63
2022/02/18 05:31:32;;;;;;;5.00;2.30;;;23.90;35.70;;;;;;6111677;28;80757;-60
2022/02/18 05:34:36;;;;;;;5.45;1.73;;;23.90;36.00;;;;;;6105522;28;86767;-62
2022/02/18 05:37:36;;;;;;;5.28;2.20;;;24.00;36.20;;;;;;6108290;28;80488;-61
2022/02/18 05:40:37;;;;;;;4.88;2.38;;;24.00;36.20;;;;;;6102774;28;80278;-61
2022/02/18 05:43:37;;;;;;;4.03;2.10;;;24.00;36.20;;;;;;6097068;28;82129;-61
2022/02/18 05:46:38;;;;;;;3.90;2.22;;;24.00;36.10;;;;;;6105041;28;80581;-61
2022/02/18 05:49:38;;;;;;;6.20;1.67;;;24.00;36.50;;;;;;6108394;28;80435;-64
2022/02/18 05:52:39;;;;;;;4.82;2.05;;;24.00;36.30;;;;;;6126286;28;80892;-65
2022/02/18 05:55:39;;;;;;;3.67;1.77;;;24.00;38.90;;;;;;6118184;28;80411;-64
2022/02/18 05:58:42;;;;;;;5.68;1.35;;;24.00;39.50;;;;;;6111888;28;80587;-61
2022/02/18 06:01:44;;;;;;;4.47;1.33;;;24.00;40.90;;;;;;6092128;28;81093;-62
2022/02/18 06:04:45;;;;;;;3.17;1.60;;;23.90;41.80;;;;;;6106529;28;81947;-63
2022/02/18 06:07:48;;;;;;;2.60;1.38;;;23.90;42.80;;;;;;6111918;28;81508;-66
2022/02/18 06:10:48;;;;;;;2.22;1.13;;;23.90;43.20;;;;;;6094201;28;80317;-65
2022/02/18 06:13:49;;;;;;;1.48;1.20;;;23.90;43.60;;;;;;6127854;28;80529;-66
2022/02/18 06:16:49;;;;;;;1.58;1.13;;;23.90;44.20;;;;;;6111418;28;80376;-64
2022/02/18 06:19:50;;;;;;;2.13;1.45;;;23.90;45.00;;;;;;6122964;28;80583;-64
2022/02/18 06:22:55;;;;;;;4.47;1.53;;;23.90;45.10;;;;;;6111247;28;80506;-64
2022/02/18 06:25:55;;;;;;;2.97;1.23;;;23.90;45.10;;;;;;6119343;28;81324;-63
2022/02/18 06:28:56;;;;;;;2.10;1.48;;;23.90;45.40;;;;;;6107120;28;80871;-65
2022/02/18 06:31:57;;;;;;;1.58;0.98;;;23.90;45.80;;;;;;6111566;28;80540;-66
2022/02/18 06:34:58;;;;;;;1.60;1.20;;;24.00;46.00;;;;;;6118786;28;81877;-63
2022/02/18 06:37:58;;;;;;;2.47;1.45;;;24.00;45.60;;;;;;6117194;28;80598;-63
2022/02/18 06:40:59;;;;;;;2.28;1.02;;;24.10;46.00;;;;;;6100649;28;82827;-61
2022/02/18 06:43:59;;;;;;;4.35;1.52;;;24.10;45.90;;;;;;6119901;28;80637;-64
2022/02/18 06:47:00;;;;;;;2.47;1.20;;;24.10;45.80;;;;;;6121395;28;80559;-65
2022/02/18 06:50:01;;;;;;;3.72;1.55;;;24.10;46.20;;;;;;6126103;28;80471;-62
2022/02/18 06:53:02;;;;;;;10.10;2.28;;;24.10;44.90;;;;;;6123096;28;80747;-62
2022/02/18 06:56:03;;;;;;;3.67;1.73;;;24.10;44.00;;;;;;6110282;28;80701;-63
2022/02/18 06:59:03;;;;;;;4.95;1.90;;;24.10;42.90;;;;;;6096953;28;80515;-63
2022/02/18 07:02:04;;;;;;;3.47;1.90;;;24.20;42.20;;;;;;6105562;28;80937;-64
2022/02/18 07:05:05;;;;;;;4.80;2.25;;;24.30;41.80;;;;;;6101524;28;83173;-63
2022/02/18 07:08:06;;;;;;;5.38;1.90;;;24.30;41.60;;;;;;6106228;28;80434;-63
2022/02/18 07:11:06;;;;;;;3.47;1.83;;;24.40;41.60;;;;;;6113346;28;80453;-62
2022/02/18 07:14:07;;;;;;;3.50;1.80;;;24.50;41.50;;;;;;6112877;28;81104;-62
2022/02/18 07:17:08;;;;;;;3.58;1.77;;;24.60;41.50;;;;;;6114724;28;80485;-61
2022/02/18 07:20:09;;;;;;;3.50;1.67;;;24.60;41.20;;;;;;6114274;28;80685;-62
2022/02/18 07:23:09;;;;;;;3.65;2.28;;;24.60;40.90;;;;;;6110627;28;80578;-62
2022/02/18 07:26:10;;;;;;;5.43;2.50;;;24.60;40.70;;;;;;6109847;28;80939;-64
2022/02/18 07:29:11;;;;;;;4.03;2.40;;;24.70;40.50;;;;;;6107985;28;80625;-62
2022/02/18 07:32:11;;;;;;;4.65;2.70;;;24.70;40.30;;;;;;6103784;28;81516;-62
2022/02/18 07:35:12;;;;;;;5.95;2.30;;;24.70;39.90;;;;;;6120046;28;81841;-60
2022/02/18 07:38:13;;;;;;;5.07;2.17;;;24.80;39.70;;;;;;6111684;28;80878;-64
2022/02/18 07:41:17;;;;;;;4.05;1.90;;;24.80;39.40;;;;;;6108103;28;82773;-62
2022/02/18 07:44:18;;;;;;;4.00;2.20;;;24.80;39.40;;;;;;6128060;28;80575;-62
2022/02/18 07:47:18;;;;;;;6.68;2.10;;;24.90;39.40;;;;;;6109999;28;80928;-61
2022/02/18 07:50:20;;;;;;;4.18;2.22;;;24.90;38.90;;;;;;6112198;28;80835;-63
2022/02/18 07:53:20;;;;;;;6.00;2.88;;;24.90;38.50;;;;;;6113337;28;81930;-63
2022/02/18 07:56:21;;;;;;;4.50;2.80;;;24.90;37.80;;;;;;6104192;28;80280;-60
2022/02/18 07:59:22;;;;;;;7.07;2.55;;;24.90;37.40;;;;;;6109689;28;82635;-62
2022/02/18 08:02:22;;;;;;;6.15;2.70;;;24.90;37.00;;;;;;6111767;28;80461;-61
2022/02/18 08:05:23;;;;;;;9.43;4.38;;;25.00;37.00;;;;;;6117048;28;81309;-61
2022/02/18 08:08:24;;;;;;;8.63;2.75;;;25.00;36.90;;;;;;6108542;28;80318;-61
2022/02/18 08:11:25;;;;;;;5.22;2.58;;;25.10;37.00;;;;;;6111731;28;80854;-61
2022/02/18 08:14:25;;;;;;;11.80;2.42;;;25.10;37.10;;;;;;6119740;28;82075;-61
2022/02/18 08:17:26;;;;;;;8.80;2.83;;;25.10;36.60;;;;;;6098130;28;81611;-61
2022/02/18 08:20:26;;;;;;;7.03;3.50;;;25.20;36.70;;;;;;6108651;28;80509;-60
2022/02/18 08:23:28;;;;;;;4.78;2.70;;;25.20;36.70;;;;;;6110455;28;81442;-62
2022/02/18 08:26:28;;;;;;;8.10;3.08;;;25.30;36.70;;;;;;6108197;28;81929;-60
2022/02/18 08:29:29;;;;;;;9.68;3.10;;;25.30;36.70;;;;;;6109049;28;80517;-60
2022/02/18 08:32:29;;;;;;;4.50;2.45;;;25.30;37.00;;;;;;6124644;28;81592;-60
2022/02/18 08:35:30;;;;;;;5.40;3.15;;;25.30;36.80;;;;;;6113682;28;81629;-60
2022/02/18 08:38:30;;;;;;;5.32;3.13;;;25.40;36.50;;;;;;6113287;28;81083;-60
2022/02/18 08:41:31;;;;;;;4.88;2.33;;;25.40;36.80;;;;;;6100795;28;80953;-59
2022/02/18 08:44:31;;;;;;;6.72;2.55;;;25.40;36.50;;;;;;6102486;28;80422;-60
2022/02/18 08:47:32;;;;;;;5.38;2.42;;;25.50;36.70;;;;;;6115151;28;80779;-61
2022/02/18 08:50:33;;;;;;;5.15;3.28;;;25.50;37.10;;;;;;6123033;28;81962;-60
2022/02/18 08:53:33;;;;;;;7.18;2.97;;;25.60;36.90;;;;;;6109667;28;80404;-61
2022/02/18 08:56:34;;;;;;;6.28;2.80;;;25.60;37.10;;;;;;6098881;28;81897;-60
2022/02/18 08:59:34;;;;;;;5.40;2.78;;;25.60;37.50;;;;;;6116259;28;81659;-60
2022/02/18 09:02:35;;;;;;;9.15;3.22;;;25.60;38.20;;;;;;6108363;28;83602;-60
2022/02/18 09:05:36;;;;;;;6.05;2.50;;;25.70;38.20;;;;;;6107024;28;81568;-62
2022/02/18 09:08:36;;;;;;;5.32;2.53;;;25.60;38.60;;;;;;6102158;28;81640;-62
2022/02/18 09:11:37;;;;;;;6.13;3.10;;;25.60;38.70;;;;;;6106242;28;81823;-60
2022/02/18 09:14:38;;;;;;;6.78;2.58;;;25.60;38.90;;;;;;6112297;28;80636;-62
2022/02/18 09:17:53;;;;;;;6.20;2.50;;;25.60;39.30;;;;;;6100052;28;82452;-62
2022/02/18 09:20:54;;;;;;;6.93;2.78;;;25.60;39.50;;;;;;6122580;28;82033;-61
2022/02/18 09:23:55;;;;;;;7.38;2.65;;;25.70;39.40;;;;;;6124351;28;80230;-60
2022/02/18 09:26:55;;;;;;;5.30;2.67;;;25.70;39.20;;;;;;6111164;28;80399;-62
2022/02/18 09:29:57;;;;;;;7.70;3.15;;;25.70;39.00;;;;;;6107713;28;81294;-61
2022/02/18 09:32:57;;;;;;;6.25;2.72;;;25.70;38.80;;;;;;6100672;28;81643;-59
2022/02/18 09:35:58;;;;;;;7.32;2.83;;;25.70;38.70;;;;;;6116845;28;80547;-60
2022/02/18 09:38:58;;;;;;;6.15;2.58;;;25.70;38.60;;;;;;6107118;28;81108;-59
2022/02/18 09:41:59;;;;;;;7.97;2.60;;;25.70;38.70;;;;;;6097437;28;80703;-60
2022/02/18 09:45:00;;;;;;;10.73;3.15;;;25.80;38.90;;;;;;6095141;28;80448;-60
2022/02/18 09:48:00;;;;;;;11.02;3.10;;;25.80;39.20;;;;;;6109457;28;80942;-60
2022/02/18 09:51:01;;;;;;;8.38;3.38;;;25.80;38.70;;;;;;6101231;28;85861;-60
2022/02/18 09:54:01;;;;;;;13.13;4.43;;;25.80;39.10;;;;;;6100229;28;80281;-61
2022/02/18 09:57:02;;;;;;;15.40;4.50;;;25.70;39.20;;;;;;6126829;28;81014;-61
2022/02/18 10:00:02;;;;;;;9.93;4.00;;;25.70;39.30;;;;;;6098942;28;80356;-60
2022/02/18 10:03:03;;;;;;;8.52;3.30;;;25.70;39.80;;;;;;6106229;28;82432;-59
2022/02/18 10:06:04;;;;;;;12.80;4.43;;;25.70;39.30;;;;;;6093758;28;80977;-60
2022/02/18 10:09:05;;;;;;;12.32;3.60;;;25.70;39.20;;;;;;6097248;28;80642;-62
2022/02/18 10:12:06;;;;;;;8.65;3.85;;;25.70;39.40;;;;;;6106054;28;86037;-63
2022/02/18 10:15:10;;;;;;;8.20;2.97;;;25.70;39.00;;;;;;6100378;28;80430;-63
2022/02/18 10:18:11;;;;;;;10.07;3.40;;;25.70;39.00;;;;;;6097540;28;81207;-62
2022/02/18 10:21:12;;;;;;;11.13;3.53;;;25.70;38.70;;;;;;6102693;28;80525;-61
2022/02/18 10:24:15;;;;;;;8.45;2.90;;;25.70;39.00;;;;;;6104785;28;80737;-60
2022/02/18 10:27:16;;;;;;;7.45;3.38;;;25.60;38.70;;;;;;6091629;28;86452;-61
2022/02/18 10:30:22;;;;;;;10.60;3.53;;;25.60;38.80;;;;;;6093826;28;83158;-62
2022/02/18 10:33:23;;;;;;;8.60;3.20;;;25.60;38.20;;;;;;6096181;28;81104;-61
2022/02/18 10:36:24;;;;;;;10.65;2.85;;;25.70;37.90;;;;;;6098752;28;83724;-61
2022/02/18 10:39:25;;;;;;;7.75;2.67;;;25.80;38.00;;;;;;6097773;28;81114;-61
2022/02/18 10:42:26;;;;;;;6.20;3.00;;;25.90;37.40;;;;;;6111059;28;80857;-62
2022/02/18 10:45:27;;;;;;;5.40;2.78;;;25.90;37.20;;;;;;6109972;28;80836;-60
2022/02/18 10:48:27;;;;;;;6.55;2.58;;;26.00;37.10;;;;;;6107892;28;80824;-61
2022/02/18 10:51:30;;;;;;;6.80;2.85;;;26.10;36.80;;;;;;6100649;28;80504;-60
2022/02/18 10:54:31;;;;;;;7.40;2.65;;;26.10;36.50;;;;;;6124010;28;82933;-59
2022/02/18 10:57:31;;;;;;;8.40;2.92;;;26.10;36.70;;;;;;6119232;28;81641;-62
2022/02/18 11:00:32;;;;;;;3.90;2.33;;;26.10;37.10;;;;;;6111692;28;80649;-61
2022/02/18 11:03:32;;;;;;;5.85;2.30;;;26.10;36.10;;;;;;6103456;28;80824;-61
2022/02/18 11:06:33;;;;;;;11.95;2.58;;;26.20;36.10;;;;;;6105940;28;80721;-62
2022/02/18 11:09:33;;;;;;;6.60;2.97;;;26.20;36.40;;;;;;6100067;28;81192;-62
2022/02/18 11:12:35;;;;;;;9.52;2.80;;;26.30;36.50;;;;;;6099787;28;80468;-62
2022/02/18 11:15:35;;;;;;;7.97;2.78;;;26.40;36.70;;;;;;6103877;28;81456;-61
2022/02/18 11:18:36;;;;;;;5.88;2.83;;;26.50;36.90;;;;;;6109485;28;81548;-61
2022/02/18 11:21:37;;;;;;;7.93;2.50;;;26.60;37.10;;;;;;6121014;28;80447;-61
2022/02/18 11:24:38;;;;;;;9.90;2.63;;;26.70;37.40;;;;;;6106681;28;80299;-62
2022/02/18 11:27:38;;;;;;;15.75;2.88;;;26.80;37.30;;;;;;6097540;28;80572;-62
2022/02/18 11:30:39;;;;;;;8.38;2.35;;;26.80;37.70;;;;;;6110944;28;81690;-65
2022/02/18 11:33:40;;;;;;;5.93;2.40;;;26.90;37.40;;;;;;6106969;28;80468;-64
2022/02/18 11:36:41;;;;;;;6.80;2.25;;;26.80;37.60;;;;;;6110790;28;80495;-67
2022/02/18 11:39:41;;;;;;;10.55;2.88;;;26.90;38.20;;;;;;6109661;28;80875;-66
2022/02/18 11:42:42;;;;;;;8.95;2.83;;;26.80;38.70;;;;;;6101410;28;80617;-66
2022/02/18 11:45:42;;;;;;;6.65;2.28;;;26.90;39.00;;;;;;6109309;28;80667;-67
2022/02/18 11:48:44;;;;;;;4.07;2.30;;;27.00;39.80;;;;;;6113511;28;80427;-64
2022/02/18 11:51:45;;;;;;;5.68;2.22;;;27.00;40.20;;;;;;6110948;28;80796;-65
2022/02/18 11:54:46;;;;;;;8.70;2.72;;;27.10;40.30;;;;;;6120969;28;80938;-65
2022/02/18 11:57:47;;;;;;;7.60;2.30;;;27.10;40.40;;;;;;6122650;28;81494;-64
2022/02/18 12:00:51;;;;;;;5.20;2.15;;;27.10;40.30;;;;;;6113608;28;82661;-64
2022/02/18 12:03:53;;;;;;;7.20;2.77;;;27.20;40.20;;;;;;6111468;28;80569;-67
2022/02/18 12:06:54;;;;;;;3.20;2.10;;;27.20;40.40;;;;;;6123855;28;80479;-66
2022/02/18 12:09:54;;;;;;;3.95;2.15;;;27.30;40.40;;;;;;6118224;28;80538;-65
2022/02/18 12:12:55;;;;;;;4.13;2.00;;;27.30;40.20;;;;;;6125282;28;81564;-69
2022/02/18 12:15:56;;;;;;;4.50;2.20;;;27.40;40.10;;;;;;6106222;28;81353;-64
2022/02/18 12:18:56;;;;;;;5.65;2.47;;;27.40;40.70;;;;;;6109340;28;80493;-66
2022/02/18 12:21:58;;;;;;;7.05;2.22;;;27.40;40.00;;;;;;6104736;28;83247;-66
2022/02/18 12:25:01;;;;;;;6.55;2.15;;;27.40;39.70;;;;;;6102018;28;80394;-65
2022/02/18 12:28:01;;;;;;;3.60;2.08;;;27.40;39.80;;;;;;6106733;28;81455;-66
2022/02/18 12:31:06;;;;;;;8.68;2.85;;;27.50;40.00;;;;;;6105977;28;80828;-66
2022/02/18 12:34:07;;;;;;;5.70;2.67;;;27.50;39.90;;;;;;6109767;28;81548;-66
2022/02/18 12:37:07;;;;;;;8.82;2.53;;;27.50;39.80;;;;;;6113447;28;80928;-65
2022/02/18 12:40:10;;;;;;;8.02;2.40;;;27.50;39.70;;;;;;6106322;28;81659;-67
2022/02/18 12:43:11;;;;;;;7.32;2.30;;;27.50;40.40;;;;;;6112516;28;87793;-65
2022/02/18 12:46:16;;;;;;;5.30;2.60;;;27.50;39.60;;;;;;6108585;28;81259;-66
2022/02/18 12:49:16;;;;;;;6.28;2.65;;;27.50;39.40;;;;;;6110222;28;80469;-63
2022/02/18 12:52:17;;;;;;;4.25;2.70;;;27.60;39.40;;;;;;6109666;28;80496;-62
2022/02/18 12:55:22;;;;;;;5.53;2.63;;;27.60;39.40;;;;;;6115624;28;80937;-63
2022/02/18 12:58:23;;;;;;;7.60;3.72;;;27.60;39.20;;;;;;6112047;28;80779;-64
2022/02/18 13:01:24;;;;;;;13.35;5.65;;;27.70;39.20;;;;;;6122956;28;80540;-62
2022/02/18 13:04:26;;;;;;;13.43;7.18;;;27.60;39.10;;;;;;6108634;28;80835;-63
2022/02/18 13:07:27;;;;;;;14.98;4.68;;;27.70;39.70;;;;;;6110707;28;80450;-64
2022/02/18 13:10:29;;;;;;;5.07;2.95;;;27.50;32.60;;;;;;6112857;28;80743;-64
2022/02/18 13:13:30;;;;;;;8.00;2.75;;;27.00;29.40;;;;;;6099373;28;81271;-67
2022/02/18 13:16:30;;;;;;;5.50;2.67;;;26.70;28.50;;;;;;6106505;28;81526;-67
2022/02/18 13:19:31;;;;;;;6.40;2.80;;;26.70;28.50;;;;;;6104990;28;81361;-69
2022/02/18 13:22:31;;;;;;;5.82;2.92;;;26.70;28.30;;;;;;6107671;28;80762;-66
2022/02/18 13:25:32;;;;;;;8.57;4.20;;;26.70;27.90;;;;;;6103171;28;83202;-69
2022/02/18 13:28:32;;;;;;;3.80;2.65;;;26.70;27.50;;;;;;6098269;28;81202;-67
2022/02/18 13:31:33;;;;;;;4.03;2.60;;;26.70;26.90;;;;;;6098618;28;80470;-61
2022/02/18 13:34:34;;;;;;;5.65;2.38;;;26.60;26.70;;;;;;6097091;28;80560;-62
2022/02/18 13:37:34;;;;;;;10.88;5.00;;;26.50;26.40;;;;;;6105971;28;80704;-63
2022/02/18 13:40:35;;;;;;;7.22;3.47;;;26.40;26.20;;;;;;6103228;28;80360;-66
2022/02/18 13:43:36;;;;;;;12.50;3.53;;;26.40;26.20;;;;;;6105259;28;81299;-66
2022/02/18 13:46:36;;;;;;;8.82;2.42;;;26.40;26.70;;;;;;6101329;28;80806;-63
2022/02/18 13:49:37;;;;;;;5.82;2.70;;;26.30;26.60;;;;;;6108778;28;80838;-65
2022/02/18 13:52:37;;;;;;;4.43;2.50;;;26.30;26.40;;;;;;6106514;28;80635;-65
2022/02/18 13:55:38;;;;;;;8.23;2.72;;;26.30;26.90;;;;;;6106166;28;80341;-66
2022/02/18 13:58:40;;;;;;;8.30;2.65;;;26.20;27.30;;;;;;6109117;28;80895;-66
2022/02/18 14:01:40;;;;;;;9.48;2.63;;;26.20;27.30;;;;;;6095511;28;80905;-67
2022/02/18 14:04:42;;;;;;;5.07;2.65;;;26.20;27.30;;;;;;6100769;28;81758;-65
2022/02/18 14:07:42;;;;;;;4.65;2.10;;;26.20;27.50;;;;;;6094322;28;80398;-64
2022/02/18 14:10:43;;;;;;;4.55;2.22;;;26.20;27.40;;;;;;6097746;28;80777;-64
2022/02/18 14:13:43;;;;;;;7.95;4.22;;;26.30;27.30;;;;;;6095510;28;81578;-65
2022/02/18 14:16:44;;;;;;;5.15;2.75;;;26.10;27.40;;;;;;6098378;28;80909;-66
2022/02/18 14:19:44;;;;;;;7.47;2.90;;;26.00;27.30;;;;;;6106753;28;82001;-66
2022/02/18 14:22:45;;;;;;;8.10;3.13;;;25.90;27.00;;;;;;6106824;28;81472;-66
2022/02/18 14:25:46;;;;;;;4.15;2.33;;;26.00;27.90;;;;;;6097663;28;80930;-65
2022/02/18 14:28:47;;;;;;;4.90;2.20;;;26.20;28.60;;;;;;6104746;28;81994;-63
2022/02/18 14:31:47;;;;;;;4.32;2.28;;;26.40;29.20;;;;;;6097731;28;81592;-64
2022/02/18 14:34:48;;;;;;;7.03;2.92;;;26.60;30.00;;;;;;6106655;28;80527;-64
2022/02/18 14:37:48;;;;;;;5.72;2.28;;;26.70;30.20;;;;;;6099209;28;80533;-65
2022/02/18 14:40:49;;;;;;;6.38;2.63;;;26.80;30.30;;;;;;6099091;28;80264;-65
2022/02/18 14:43:49;;;;;;;7.47;3.10;;;26.80;30.70;;;;;;6095841;28;80791;-64
2022/02/18 14:46:50;;;;;;;5.55;2.70;;;26.80;31.30;;;;;;6099151;28;80429;-65
2022/02/18 14:49:51;;;;;;;4.63;2.15;;;26.80;31.40;;;;;;6099617;28;81575;-64
2022/02/18 14:52:51;;;;;;;4.55;2.58;;;26.80;31.60;;;;;;6096657;28;80294;-65
2022/02/18 14:55:52;;;;;;;5.60;3.17;;;26.90;31.40;;;;;;6101028;28;80418;-66
2022/02/18 14:58:53;;;;;;;5.35;2.67;;;27.00;31.70;;;;;;6092771;28;80645;-66
2022/02/18 15:01:53;;;;;;;9.13;3.10;;;27.10;31.50;;;;;;6101411;28;82436;-64
2022/02/18 15:04:54;;;;;;;5.43;2.47;;;27.10;31.70;;;;;;6098627;28;80479;-64
2022/02/18 15:07:55;;;;;;;7.80;2.88;;;27.00;31.70;;;;;;6102054;28;80394;-65
2022/02/18 15:10:55;;;;;;;4.72;2.95;;;27.00;31.90;;;;;;6092413;28;82203;-65
2022/02/18 15:13:56;;;;;;;3.83;2.53;;;27.00;31.80;;;;;;6104647;28;80495;-63
2022/02/18 15:16:57;;;;;;;5.38;2.75;;;26.90;32.10;;;;;;6096692;28;80376;-66
2022/02/18 15:19:57;;;;;;;5.32;2.40;;;26.70;32.00;;;;;;6105814;28;80233;-65
2022/02/18 15:22:58;;;;;;;4.55;2.30;;;26.60;31.90;;;;;;6109975;28;80596;-64
2022/02/18 15:25:58;;;;;;;5.65;2.50;;;26.40;32.20;;;;;;6108559;28;80908;-63
2022/02/18 15:28:59;;;;;;;5.60;2.60;;;26.30;32.20;;;;;;6111413;28;80454;-65
2022/02/18 15:35:20;;;;;;;7.25;2.90;;;26.10;32.60;;;;;;6127901;28;80336;-64
2022/02/18 15:38:21;;;;;;;5.63;2.55;;;26.10;32.80;;;;;;6110803;28;81454;-65
2022/02/18 15:44:44;;;;;;;6.20;2.95;;;25.90;33.70;;;;;;6121117;28;83592;-64
2022/02/18 15:47:45;;;;;;;6.05;2.80;;;25.90;34.10;;;;;;6113978;28;81626;-64
2022/02/18 15:50:45;;;;;;;4.35;2.65;;;25.90;34.60;;;;;;6106152;28;80513;-64